Time;durP1;ratioP1;P1;durP2;ratioP2;P2;SDS_P1;SDS_P2;PMS_P1;PMS_P2;Temp;Humidity;BMP_temperature;BMP_pressure;BME280_temperature;BME280_humidity;BME280_pressure;Samples;Min_cycle;Max_cycle;Signal;HPM_P1;HPM_P2
2022/09/20 00:00:45;;;;;;;7.82;2.75;;;17.00;47.20;;;;;;6146659;28;20046;-80
2022/09/20 00:03:52;;;;;;;9.77;1.98;;;17.00;47.40;;;;;;6130925;28;20082;-79
2022/09/20 00:06:53;;;;;;;5.72;2.13;;;16.90;47.50;;;;;;6148146;28;20043;-79
2022/09/20 00:09:54;;;;;;;7.28;2.13;;;16.90;47.60;;;;;;6146440;28;20047;-79
2022/09/20 00:12:55;;;;;;;6.75;2.13;;;16.80;47.60;;;;;;6129597;28;20130;-78
2022/09/20 00:15:56;;;;;;;8.60;1.77;;;16.80;47.60;;;;;;6130728;28;20046;-79
2022/09/20 00:18:58;;;;;;;8.23;1.77;;;16.80;47.70;;;;;;6140164;28;20054;-79
2022/09/20 00:21:59;;;;;;;10.88;1.88;;;16.80;47.80;;;;;;6186016;28;20049;-80
2022/09/20 00:25:00;;;;;;;8.55;2.53;;;16.70;48.40;;;;;;6168961;28;20039;-80
2022/09/20 00:28:01;;;;;;;8.93;1.73;;;16.70;47.80;;;;;;6164232;28;20117;-80
2022/09/20 00:31:03;;;;;;;3.67;1.42;;;16.70;47.80;;;;;;6171390;28;20039;-79
2022/09/20 00:37:25;;;;;;;4.85;1.70;;;16.60;48.10;;;;;;6150358;28;20053;-80
2022/09/20 00:40:26;;;;;;;12.93;1.48;;;16.60;48.00;;;;;;6143346;28;20051;-79
2022/09/20 00:43:41;;;;;;;3.83;1.35;;;16.60;48.10;;;;;;6185955;28;20459;-79
2022/09/20 00:46:44;;;;;;;8.27;1.60;;;16.50;48.20;;;;;;6140944;28;20369;-79
2022/09/20 00:49:46;;;;;;;3.75;1.50;;;16.50;48.20;;;;;;6146970;28;20499;-79
2022/09/20 00:52:59;;;;;;;5.03;1.40;;;16.50;48.30;;;;;;6158148;28;20055;-77
2022/09/20 00:56:18;;;;;;;11.60;2.00;;;16.50;48.30;;;;;;6161647;28;20035;-80
2022/09/20 00:59:27;;;;;;;9.05;1.65;;;16.40;48.30;;;;;;6147618;28;20058;-79
2022/09/20 01:02:29;;;;;;;;;;;16.40;48.30;;;;;;6153914;28;22574;-78
2022/09/20 01:05:30;;;;;;;4.18;1.50;;;16.40;48.30;;;;;;6153764;28;20232;-79
2022/09/20 01:08:33;;;;;;;8.43;1.95;;;16.40;48.20;;;;;;6156824;28;20075;-78
2022/09/20 01:11:35;;;;;;;5.97;1.10;;;16.40;48.30;;;;;;6161751;28;20043;-78
2022/09/20 01:14:36;;;;;;;4.80;1.40;;;16.30;48.30;;;;;;6168283;28;20166;-78
2022/09/20 01:17:41;;;;;;;3.60;1.30;;;16.30;48.40;;;;;;6156913;28;20032;-78
2022/09/20 01:20:45;;;;;;;2.47;0.98;;;16.20;48.50;;;;;;6157988;28;20102;-79
2022/09/20 01:24:26;;;;;;;3.70;1.10;;;16.20;48.70;;;;;;6147381;28;20039;-78
2022/09/20 01:27:33;;;;;;;5.13;0.98;;;16.20;48.70;;;;;;6148911;28;20036;-79
2022/09/20 01:30:49;;;;;;;6.20;1.63;;;16.20;48.70;;;;;;6148713;28;20054;-79
2022/09/20 01:34:14;;;;;;;9.98;1.33;;;16.10;48.80;;;;;;6155361;28;20039;-79
2022/09/20 01:37:21;;;;;;;2.35;1.10;;;16.10;48.80;;;;;;6150630;28;20039;-80
2022/09/20 01:40:39;;;;;;;9.55;1.70;;;16.10;48.80;;;;;;6147342;28;20043;-80
2022/09/20 01:43:50;;;;;;;5.13;1.37;;;16.10;48.80;;;;;;6147182;28;20090;-79
2022/09/20 01:46:58;;;;;;;5.00;1.50;;;16.10;48.70;;;;;;6148802;28;20186;-78
2022/09/20 01:50:18;;;;;;;5.63;1.20;;;16.10;48.60;;;;;;6151517;28;20027;-80
2022/09/20 01:53:53;;;;;;;4.50;1.20;;;16.10;48.60;;;;;;6150677;28;20134;-79
2022/09/20 01:57:12;;;;;;;3.42;1.20;;;16.10;48.60;;;;;;6147387;28;20093;-78
2022/09/20 02:00:33;;;;;;;4.35;1.17;;;16.10;48.60;;;;;;6149665;28;20082;-79
2022/09/20 02:03:58;;;;;;;4.13;1.00;;;16.10;48.60;;;;;;6147897;28;20043;-79
2022/09/20 02:07:42;;;;;;;5.32;1.02;;;16.10;48.60;;;;;;6148827;28;20077;-79
2022/09/20 02:11:05;;;;;;;4.05;1.42;;;16.10;48.60;;;;;;6144782;28;20039;-79
2022/09/20 02:14:33;;;;;;;4.30;1.45;;;16.10;48.60;;;;;;6137639;28;20054;-79
2022/09/20 02:17:43;;;;;;;4.63;1.25;;;16.10;48.60;;;;;;6155659;28;20062;-79
2022/09/20 02:21:07;;;;;;;6.07;1.10;;;16.10;48.60;;;;;;6150217;28;20043;-79
2022/09/20 02:24:27;;;;;;;5.70;1.20;;;16.10;48.60;;;;;;6150205;28;20047;-79
2022/09/20 02:27:52;;;;;;;11.10;1.67;;;16.10;48.70;;;;;;6147666;28;20479;-79
2022/09/20 02:31:02;;;;;;;7.80;0.93;;;16.10;49.00;;;;;;6081190;29;20032;-77
2022/09/20 02:34:28;;;;;;;2.83;1.08;;;16.10;49.30;;;;;;6099431;29;20056;-78
2022/09/20 02:37:29;;;;;;;1.77;0.98;;;16.00;49.50;;;;;;6097426;29;20373;-77
2022/09/20 02:40:55;;;;;;;3.38;1.15;;;16.00;49.70;;;;;;6099002;29;20045;-78
2022/09/20 02:44:04;;;;;;;7.85;0.90;;;16.00;49.90;;;;;;6050926;29;20037;-79
2022/09/20 02:47:34;;;;;;;4.13;1.00;;;15.90;50.00;;;;;;6049596;29;20371;-77
2022/09/20 02:50:52;;;;;;;7.22;1.23;;;15.90;50.10;;;;;;6050287;29;20066;-79
2022/09/20 02:54:29;;;;;;;2.00;0.80;;;15.90;50.10;;;;;;6048301;29;20045;-78
2022/09/20 02:58:04;;;;;;;4.75;1.02;;;15.80;50.10;;;;;;6027151;29;20596;-79
2022/09/20 03:01:16;;;;;;;2.10;0.63;;;15.80;50.20;;;;;;6047560;29;20033;-79
2022/09/20 03:04:41;;;;;;;2.03;0.88;;;15.80;50.40;;;;;;6029977;29;20032;-79
2022/09/20 03:08:30;;;;;;;0.82;0.63;;;15.70;50.40;;;;;;6057491;29;20119;-79
2022/09/20 03:12:00;;;;;;;1.90;0.70;;;15.70;50.40;;;;;;6018008;29;20042;-77
2022/09/20 03:15:22;;;;;;;2.38;0.70;;;15.70;50.50;;;;;;6013534;29;20073;-79
2022/09/20 03:18:41;;;;;;;4.45;1.23;;;15.60;50.70;;;;;;6016875;29;20121;-78
2022/09/20 03:22:14;;;;;;;3.03;1.17;;;15.60;50.90;;;;;;6060774;29;20144;-78
2022/09/20 03:25:30;;;;;;;0.90;0.68;;;15.50;50.90;;;;;;6021489;29;20034;-80
2022/09/20 03:29:03;;;;;;;3.38;0.85;;;15.60;51.10;;;;;;6011733;29;20099;-78
2022/09/20 03:32:38;;;;;;;4.93;1.05;;;15.50;51.20;;;;;;6027423;29;20163;-79
2022/09/20 03:36:00;;;;;;;4.43;0.75;;;15.50;51.30;;;;;;6031582;29;20048;-78
2022/09/20 03:39:32;;;;;;;6.65;1.10;;;15.50;51.40;;;;;;6027757;29;20053;-80
2022/09/20 03:42:37;;;;;;;3.05;0.82;;;15.40;51.40;;;;;;6026943;29;20391;-78
2022/09/20 03:45:55;;;;;;;6.68;1.55;;;15.40;51.40;;;;;;6014417;29;20072;-78
2022/09/20 03:49:25;;;;;;;2.25;1.15;;;15.40;51.70;;;;;;6045207;29;20510;-79
2022/09/20 03:52:52;;;;;;;2.35;1.00;;;15.40;51.90;;;;;;6096881;29;20229;-80
2022/09/20 03:56:12;;;;;;;6.50;1.05;;;15.40;52.10;;;;;;6080531;29;20051;-79
2022/09/20 03:59:36;;;;;;;3.28;1.42;;;15.40;52.20;;;;;;6113487;29;20138;-78
2022/09/20 04:02:42;;;;;;;2.78;1.60;;;15.40;52.30;;;;;;6138838;28;20101;-79
2022/09/20 04:06:23;;;;;;;5.38;1.20;;;15.40;52.40;;;;;;6145496;28;20035;-79
2022/09/20 04:10:01;;;;;;;2.83;1.10;;;15.40;52.50;;;;;;6122898;28;20464;-79
2022/09/20 04:13:28;;;;;;;3.10;1.23;;;15.40;52.50;;;;;;6144178;28;20051;-79
2022/09/20 04:17:00;;;;;;;2.10;1.20;;;15.40;52.70;;;;;;6141036;28;20059;-79
2022/09/20 04:20:20;;;;;;;2.08;1.08;;;15.30;52.70;;;;;;6138412;28;20115;-78
2022/09/20 04:23:37;;;;;;;4.80;1.42;;;15.30;52.70;;;;;;6154160;28;20043;-79
2022/09/20 04:26:45;;;;;;;3.65;1.88;;;15.20;52.80;;;;;;6166020;28;20122;-79
2022/09/20 04:29:56;;;;;;;1.00;0.90;;;15.20;52.90;;;;;;6164720;28;20039;-79
2022/09/20 04:33:18;;;;;;;2.88;1.42;;;15.20;52.90;;;;;;6158411;28;20047;-79
2022/09/20 04:36:56;;;;;;;2.85;1.30;;;15.20;53.00;;;;;;6161284;28;20034;-80
2022/09/20 04:40:34;;;;;;;6.10;1.33;;;15.20;53.00;;;;;;6158417;28;20043;-79
2022/09/20 04:43:59;;;;;;;3.78;1.73;;;15.10;53.10;;;;;;6142908;28;20031;-81
2022/09/20 04:47:12;;;;;;;4.25;1.10;;;15.20;53.10;;;;;;6143372;28;20051;-78
2022/09/20 04:50:46;;;;;;;4.93;1.73;;;15.20;53.20;;;;;;6165695;28;20031;-79
2022/09/20 04:54:34;;;;;;;5.35;1.80;;;15.20;53.30;;;;;;6167606;28;20376;-78
2022/09/20 04:57:41;;;;;;;2.42;1.40;;;15.10;53.20;;;;;;6140459;28;20285;-79
2022/09/20 05:01:15;;;;;;;6.40;1.45;;;15.10;53.30;;;;;;6151272;28;20042;-79
2022/09/20 05:04:53;;;;;;;3.08;1.80;;;15.10;53.30;;;;;;6140171;28;20110;-79
2022/09/20 05:08:09;;;;;;;6.15;1.58;;;15.10;53.50;;;;;;6145954;28;20046;-79
2022/09/20 05:11:45;;;;;;;4.47;1.48;;;15.00;53.50;;;;;;6146225;28;20078;-78
2022/09/20 05:15:04;;;;;;;6.20;2.25;;;15.00;53.70;;;;;;6143564;28;20082;-78
2022/09/20 05:18:42;;;;;;;5.77;1.70;;;15.00;53.80;;;;;;6179507;28;20453;-78
2022/09/20 05:22:12;;;;;;;3.92;1.45;;;15.00;53.90;;;;;;6143546;28;20034;-79
2022/09/20 05:25:43;;;;;;;4.63;1.75;;;15.00;54.10;;;;;;6138183;28;20473;-79
2022/09/20 05:29:01;;;;;;;2.53;1.42;;;14.90;54.10;;;;;;6146746;28;20039;-79
2022/09/20 05:32:18;;;;;;;5.07;2.53;;;14.90;54.10;;;;;;6148298;28;20046;-79
2022/09/20 05:35:28;;;;;;;5.40;1.80;;;14.80;54.20;;;;;;6155851;28;20487;-81
2022/09/20 05:38:35;;;;;;;7.72;2.13;;;14.80;54.30;;;;;;6160538;28;20114;-79
2022/09/20 05:41:55;;;;;;;3.28;1.90;;;14.80;54.30;;;;;;6165885;28;20404;-79
2022/09/20 05:45:22;;;;;;;7.35;1.95;;;14.80;54.50;;;;;;6142356;28;20031;-80
2022/09/20 05:48:53;;;;;;;5.82;1.85;;;14.80;54.60;;;;;;6153043;28;20337;-80
2022/09/20 05:52:14;;;;;;;8.32;2.75;;;14.70;54.60;;;;;;6150641;28;20509;-80
2022/09/20 05:55:30;;;;;;;5.43;1.95;;;14.80;54.80;;;;;;6158189;28;20030;-78
2022/09/20 05:59:08;;;;;;;11.02;2.28;;;14.80;54.90;;;;;;6159377;28;20050;-80
2022/09/20 06:02:20;;;;;;;4.25;1.77;;;14.80;55.10;;;;;;6097883;29;20079;-80
2022/09/20 06:05:57;;;;;;;8.77;2.17;;;14.80;55.20;;;;;;6100950;29;20043;-80
2022/09/20 06:09:24;;;;;;;2.92;1.48;;;14.80;55.30;;;;;;6108950;29;20152;-80
2022/09/20 06:13:08;;;;;;;10.68;2.28;;;14.80;55.40;;;;;;6119445;29;20123;-80
2022/09/20 06:16:17;;;;;;;2.65;1.70;;;14.80;55.40;;;;;;6023173;29;20037;-79
2022/09/20 06:19:38;;;;;;;5.40;1.90;;;14.80;55.40;;;;;;6044232;29;20053;-79
2022/09/20 06:22:53;;;;;;;8.55;1.92;;;14.80;55.40;;;;;;6052540;29;20037;-79
2022/09/20 06:26:00;;;;;;;6.00;1.60;;;14.80;55.40;;;;;;6036080;29;20044;-80
2022/09/20 06:29:05;;;;;;;1.88;1.10;;;14.80;55.50;;;;;;6052516;29;20372;-79
2022/09/20 06:32:07;;;;;;;6.85;1.65;;;14.80;55.60;;;;;;6032337;29;20132;-79
2022/09/20 06:35:08;;;;;;;9.65;1.77;;;14.80;55.60;;;;;;6052897;29;20048;-79
2022/09/20 06:42:00;;;;;;;3.10;1.58;;;14.90;55.60;;;;;;6080209;29;20493;-81
2022/09/20 06:45:02;;;;;;;2.78;1.52;;;14.90;55.50;;;;;;6083310;29;20127;-79
2022/09/20 06:48:03;;;;;;;9.20;2.55;;;14.90;55.60;;;;;;6076003;29;20059;-79
2022/09/20 06:51:06;;;;;;;4.18;2.00;;;14.90;55.50;;;;;;6080296;29;20059;-81
2022/09/20 06:54:14;;;;;;;7.60;2.40;;;14.90;55.50;;;;;;6127991;28;20045;-79
2022/09/20 06:57:38;;;;;;;;;;;15.00;55.50;;;;;;6149610;28;20516;-80
2022/09/20 07:00:39;;;;;;;5.95;2.05;;;15.10;55.50;;;;;;6082777;29;20349;-79
2022/09/20 07:03:41;;;;;;;9.80;2.10;;;15.10;55.30;;;;;;6100197;29;20047;-79
2022/09/20 07:06:43;;;;;;;7.28;1.45;;;15.20;55.30;;;;;;6102093;29;20055;-79
2022/09/20 07:09:45;;;;;;;4.18;1.35;;;15.30;55.20;;;;;;6113205;29;20063;-79
2022/09/20 07:12:46;;;;;;;6.15;1.73;;;15.30;55.10;;;;;;6082296;29;20039;-79
2022/09/20 07:15:47;;;;;;;2.20;1.13;;;15.40;54.90;;;;;;6118235;29;20084;-80
2022/09/20 07:18:50;;;;;;;7.03;1.70;;;15.50;54.70;;;;;;6097093;29;20139;-79
2022/09/20 07:21:53;;;;;;;4.75;1.90;;;15.60;54.60;;;;;;6102357;29;20044;-79
2022/09/20 07:24:54;;;;;;;4.35;1.75;;;15.60;54.40;;;;;;6102210;29;20139;-79
2022/09/20 07:27:56;;;;;;;5.65;1.52;;;15.80;54.30;;;;;;6101239;29;20117;-78
2022/09/20 07:30:57;;;;;;;9.73;2.00;;;15.80;54.20;;;;;;6097751;29;20052;-80
2022/09/20 07:33:58;;;;;;;4.68;2.15;;;15.90;54.10;;;;;;6097032;29;20040;-80
2022/09/20 07:36:59;;;;;;;6.47;1.80;;;16.00;53.90;;;;;;6120483;28;20042;-80
2022/09/20 07:40:01;;;;;;;8.88;2.20;;;16.10;53.70;;;;;;6148489;28;20421;-80
2022/09/20 07:43:03;;;;;;;3.30;1.50;;;16.20;53.60;;;;;;6148656;28;20042;-80
2022/09/20 07:46:05;;;;;;;5.55;1.58;;;16.30;53.30;;;;;;6148125;28;20039;-79
2022/09/20 07:49:06;;;;;;;5.88;2.00;;;16.40;53.00;;;;;;6142299;28;20035;-79
2022/09/20 07:52:09;;;;;;;5.22;1.90;;;16.50;52.70;;;;;;6164036;28;20055;-80
2022/09/20 07:55:10;;;;;;;7.57;2.05;;;16.70;52.50;;;;;;6166407;28;20054;-81
2022/09/20 07:58:11;;;;;;;4.85;1.48;;;16.80;52.20;;;;;;6160733;28;20043;-79
2022/09/20 08:01:13;;;;;;;20.02;2.10;;;16.90;52.10;;;;;;6146697;28;20044;-80
2022/09/20 08:04:14;;;;;;;4.32;2.10;;;17.00;51.80;;;;;;6156434;28;20337;-80
2022/09/20 08:07:15;;;;;;;3.42;1.65;;;17.10;51.50;;;;;;6187297;28;20031;-79
2022/09/20 08:10:16;;;;;;;4.72;1.67;;;17.20;51.30;;;;;;6146686;28;20368;-80
2022/09/20 08:13:17;;;;;;;7.35;1.83;;;17.30;51.10;;;;;;6150347;28;20054;-80
2022/09/20 08:16:19;;;;;;;5.35;1.40;;;17.50;50.80;;;;;;6144887;28;20384;-80
2022/09/20 08:19:22;;;;;;;8.18;1.30;;;17.70;50.10;;;;;;6141975;28;20101;-81
2022/09/20 08:22:23;;;;;;;3.33;1.17;;;17.70;49.70;;;;;;6146948;28;20114;-80
2022/09/20 08:25:25;;;;;;;2.38;1.35;;;17.80;49.30;;;;;;6183259;28;20058;-82
2022/09/20 08:28:26;;;;;;;5.72;1.63;;;17.90;49.30;;;;;;6136946;28;20118;-80
2022/09/20 08:31:35;;;;;;;5.13;1.75;;;18.00;48.90;;;;;;6154081;28;20484;-81
2022/09/20 08:34:37;;;;;;;2.80;1.40;;;18.20;48.70;;;;;;6146146;28;20031;-80
2022/09/20 08:37:39;;;;;;;5.32;1.27;;;18.30;48.40;;;;;;6141266;28;20049;-80
2022/09/20 08:40:40;;;;;;;7.50;1.40;;;18.40;48.10;;;;;;6153482;28;20102;-80
2022/09/20 08:43:53;;;;;;;3.53;1.13;;;18.50;47.90;;;;;;6168847;28;20043;-81
2022/09/20 08:47:18;;;;;;;4.35;1.33;;;18.50;47.50;;;;;;6170327;28;20027;-82
2022/09/20 08:50:20;;;;;;;2.80;1.08;;;18.60;47.50;;;;;;6164441;28;20039;-80
2022/09/20 08:53:21;;;;;;;1.48;1.00;;;18.70;47.20;;;;;;6156951;28;20039;-80
2022/09/20 08:56:35;;;;;;;4.38;1.63;;;18.70;46.90;;;;;;6173078;28;20066;-80
2022/09/20 08:59:36;;;;;;;1.20;0.90;;;18.80;46.70;;;;;;6142721;28;20031;-80
2022/09/20 09:02:38;;;;;;;3.08;1.48;;;18.90;46.70;;;;;;6159459;28;20038;-80
2022/09/20 09:05:57;;;;;;;8.43;1.58;;;18.90;46.50;;;;;;6173570;28;20041;-79
2022/09/20 09:08:59;;;;;;;5.90;1.25;;;19.00;46.30;;;;;;6167074;28;20051;-80
2022/09/20 09:12:02;;;;;;;4.97;1.55;;;19.10;46.10;;;;;;6162249;28;20463;-81
2022/09/20 09:15:22;;;;;;;3.67;1.20;;;19.20;46.00;;;;;;6172786;28;20073;-80
2022/09/20 09:18:48;;;;;;;2.00;1.20;;;19.30;45.80;;;;;;6154690;28;20039;-81
2022/09/20 09:21:49;;;;;;;2.55;1.10;;;19.30;45.60;;;;;;6160028;28;20047;-81
2022/09/20 09:25:07;;;;;;;4.07;1.17;;;19.50;45.50;;;;;;6170598;28;20038;-81
2022/09/20 09:28:08;;;;;;;11.52;1.80;;;19.50;45.30;;;;;;6157182;28;20051;-81
2022/09/20 09:31:24;;;;;;;4.07;1.50;;;19.60;45.00;;;;;;6158487;28;20364;-80
2022/09/20 09:34:29;;;;;;;6.15;1.67;;;19.60;44.80;;;;;;6144862;28;20064;-80
2022/09/20 09:37:30;;;;;;;2.30;1.13;;;19.60;44.80;;;;;;6167359;28;20035;-81
2022/09/20 09:40:32;;;;;;;3.20;1.40;;;19.70;44.80;;;;;;6149734;28;20035;-79
2022/09/20 09:43:36;;;;;;;6.72;1.38;;;19.80;44.80;;;;;;6152917;28;20042;-79
2022/09/20 09:46:41;;;;;;;3.10;1.70;;;19.80;44.60;;;;;;6131645;28;20078;-81
2022/09/20 09:49:56;;;;;;;3.60;1.63;;;19.90;44.50;;;;;;6131455;28;20049;-81
2022/09/20 09:53:11;;;;;;;7.00;1.45;;;19.90;44.10;;;;;;6162007;28;20054;-81
2022/09/20 09:56:35;;;;;;;5.28;1.42;;;20.00;44.00;;;;;;6166298;28;20077;-81
2022/09/20 10:00:00;;;;;;;6.47;1.13;;;20.00;43.90;;;;;;6159672;28;20487;-80
2022/09/20 10:03:18;;;;;;;4.55;1.23;;;20.10;43.70;;;;;;6154821;28;20031;-81
2022/09/20 10:06:46;;;;;;;5.88;1.27;;;20.00;43.40;;;;;;6151656;28;20035;-82
2022/09/20 10:10:24;;;;;;;3.90;1.42;;;20.10;43.30;;;;;;6155631;28;20043;-80
2022/09/20 10:13:41;;;;;;;5.13;1.00;;;20.20;43.10;;;;;;6150959;28;20043;-82
2022/09/20 10:17:11;;;;;;;2.92;1.02;;;20.30;42.90;;;;;;6147905;28;20046;-81
2022/09/20 10:20:44;;;;;;;3.58;1.00;;;20.40;42.60;;;;;;6148613;28;20047;-81
2022/09/20 10:24:29;;;;;;;2.70;1.27;;;20.40;42.30;;;;;;6144631;28;20035;-81
2022/09/20 10:27:51;;;;;;;5.43;1.20;;;20.50;42.40;;;;;;6079115;29;20115;-81
2022/09/20 10:31:00;;;;;;;3.50;1.00;;;20.70;41.90;;;;;;6073509;29;20048;-80
2022/09/20 10:34:34;;;;;;;3.40;1.40;;;21.00;41.70;;;;;;6095609;29;20557;-80
2022/09/20 10:37:56;;;;;;;3.30;1.02;;;21.30;41.20;;;;;;6099743;29;20122;-80
2022/09/20 10:44:55;;;;;;;5.65;1.35;;;22.10;40.20;;;;;;6089453;29;20071;-82
2022/09/20 10:48:20;;;;;;;6.40;1.17;;;22.40;39.60;;;;;;6056750;29;20100;-80
2022/09/20 10:51:52;;;;;;;9.48;2.05;;;22.60;39.00;;;;;;6082788;29;20036;-80
2022/09/20 10:55:07;;;;;;;4.78;1.33;;;22.80;38.60;;;;;;6093258;29;20040;-82
2022/09/20 10:58:29;;;;;;;6.15;2.03;;;23.10;37.90;;;;;;6088505;29;20059;-81
2022/09/20 11:01:57;;;;;;;7.95;1.70;;;23.40;37.00;;;;;;6094015;29;20470;-80
2022/09/20 11:05:25;;;;;;;8.80;1.52;;;23.40;36.60;;;;;;6133852;28;20066;-81
2022/09/20 11:08:32;;;;;;;3.92;1.08;;;23.40;36.80;;;;;;6159370;28;20119;-80
2022/09/20 11:11:58;;;;;;;2.80;1.15;;;23.40;36.40;;;;;;6143698;28;20440;-82
2022/09/20 11:15:22;;;;;;;6.43;1.58;;;23.50;36.10;;;;;;6150889;28;20039;-80
2022/09/20 11:18:29;;;;;;;2.72;1.08;;;23.60;36.20;;;;;;6150959;28;20071;-80
2022/09/20 11:21:50;;;;;;;2.38;1.00;;;23.90;36.00;;;;;;6150907;28;20372;-80
2022/09/20 11:25:17;;;;;;;4.68;1.67;;;24.20;35.50;;;;;;6128904;28;20059;-80
2022/09/20 11:28:31;;;;;;;2.72;1.10;;;24.60;35.00;;;;;;6146925;28;20464;-82
2022/09/20 11:31:44;;;;;;;2.65;1.02;;;24.90;34.60;;;;;;6123718;28;20039;-82
2022/09/20 11:34:50;;;;;;;3.13;1.15;;;25.20;34.00;;;;;;6147444;28;20030;-80
2022/09/20 11:38:23;;;;;;;8.27;1.20;;;25.40;33.40;;;;;;6150785;28;20429;-81
2022/09/20 11:41:29;;;;;;;4.22;1.08;;;25.70;33.00;;;;;;6138140;28;20050;-80
2022/09/20 11:44:31;;;;;;;3.00;1.05;;;26.00;32.80;;;;;;6167506;28;20031;-81
2022/09/20 11:47:41;;;;;;;2.97;1.00;;;26.20;32.40;;;;;;6169993;28;20751;-80
2022/09/20 11:51:12;;;;;;;6.93;1.35;;;26.20;31.90;;;;;;6167365;28;20038;-80
2022/09/20 11:54:23;;;;;;;4.15;0.93;;;26.40;32.00;;;;;;6151578;28;20035;-80
2022/09/20 11:57:27;;;;;;;4.28;0.90;;;26.70;31.70;;;;;;6149194;28;20046;-81
2022/09/20 12:00:31;;;;;;;2.45;1.00;;;27.00;31.30;;;;;;6124817;28;20032;-80
2022/09/20 12:03:38;;;;;;;3.47;0.98;;;27.30;31.20;;;;;;6128810;28;20114;-81
2022/09/20 12:06:41;;;;;;;2.92;1.05;;;27.70;30.80;;;;;;6139953;28;20031;-81
2022/09/20 12:09:50;;;;;;;4.10;1.33;;;28.20;30.30;;;;;;6129677;28;20039;-80
2022/09/20 12:13:21;;;;;;;6.72;1.05;;;28.40;30.00;;;;;;6163365;28;20460;-83
2022/09/20 12:16:34;;;;;;;5.35;0.90;;;28.70;29.80;;;;;;6150389;28;20315;-80
2022/09/20 12:19:37;;;;;;;3.33;1.00;;;29.20;29.20;;;;;;6171343;28;20046;-81
2022/09/20 12:22:38;;;;;;;4.47;1.17;;;29.60;28.90;;;;;;6185800;28;20040;-79
2022/09/20 12:25:39;;;;;;;5.43;1.08;;;30.10;28.20;;;;;;6154501;28;20046;-80
2022/09/20 12:28:43;;;;;;;6.07;1.25;;;30.50;27.70;;;;;;6143795;28;20408;-80
2022/09/20 12:31:49;;;;;;;8.75;1.60;;;31.10;27.10;;;;;;6155944;28;20384;-81
2022/09/20 12:34:51;;;;;;;7.40;1.58;;;31.50;26.60;;;;;;6147422;28;20055;-80
2022/09/20 12:37:52;;;;;;;4.75;2.00;;;32.00;26.20;;;;;;6146833;28;20131;-80
2022/09/20 12:41:08;;;;;;;4.75;1.13;;;32.60;25.80;;;;;;6147594;28;20051;-81
2022/09/20 12:44:40;;;;;;;3.45;1.20;;;33.10;25.20;;;;;;6145559;28;20039;-81
2022/09/20 12:47:52;;;;;;;2.83;1.00;;;33.30;25.20;;;;;;6156208;28;20035;-80
2022/09/20 12:54:24;;;;;;;4.00;1.00;;;33.50;24.00;;;;;;6149680;28;20459;-80
2022/09/20 12:57:31;;;;;;;4.07;0.77;;;33.20;24.20;;;;;;6148986;28;20031;-80
2022/09/20 13:00:38;;;;;;;4.67;0.90;;;33.10;24.30;;;;;;6150330;28;20035;-80
2022/09/20 13:03:41;;;;;;;0.90;0.70;;;33.20;24.10;;;;;;6169243;28;20039;-80
2022/09/20 13:06:43;;;;;;;6.25;1.25;;;33.60;23.60;;;;;;6169564;28;20027;-80
2022/09/20 13:09:47;;;;;;;4.15;0.90;;;34.00;23.30;;;;;;6133375;28;20651;-80
2022/09/20 13:12:52;;;;;;;2.10;0.82;;;34.20;22.80;;;;;;6151988;28;20122;-81
2022/09/20 13:15:54;;;;;;;2.10;0.70;;;34.20;22.60;;;;;;6174391;28;20074;-81
2022/09/20 13:19:19;;;;;;;3.05;0.93;;;34.10;22.70;;;;;;6139824;28;20444;-82
2022/09/20 13:22:29;;;;;;;7.85;0.93;;;33.90;22.70;;;;;;6165629;28;20039;-82
2022/09/20 13:25:33;;;;;;;3.40;0.90;;;33.70;22.70;;;;;;6170302;28;20039;-81
2022/09/20 13:28:43;;;;;;;2.08;0.80;;;33.00;23.00;;;;;;6158198;28;20035;-80
2022/09/20 13:31:45;;;;;;;2.65;1.02;;;32.00;23.90;;;;;;6155293;28;20114;-81
2022/09/20 13:35:03;;;;;;;1.80;0.80;;;30.80;25.00;;;;;;6133623;28;20031;-81
2022/09/20 13:38:06;;;;;;;7.88;0.85;;;29.90;25.90;;;;;;6138853;28;20364;-80
2022/09/20 13:41:11;;;;;;;10.48;0.88;;;28.90;26.80;;;;;;6167947;28;20045;-81
2022/09/20 13:44:16;;;;;;;2.53;1.00;;;28.10;27.60;;;;;;6135979;28;20035;-80
2022/09/20 13:47:29;;;;;;;4.90;0.90;;;27.30;28.50;;;;;;6133819;28;20046;-81
2022/09/20 13:50:33;;;;;;;7.53;0.80;;;26.60;29.10;;;;;;6155334;28;20039;-80
2022/09/20 13:53:34;;;;;;;4.38;1.13;;;26.10;29.70;;;;;;6151261;28;20480;-80
2022/09/20 13:56:39;;;;;;;2.35;1.02;;;25.80;30.10;;;;;;6150693;28;20054;-80
2022/09/20 13:59:45;;;;;;;4.38;0.88;;;25.50;30.60;;;;;;6148035;28;20035;-79
2022/09/20 14:02:47;;;;;;;4.30;0.88;;;25.20;31.20;;;;;;6144425;28;20110;-81
2022/09/20 14:05:52;;;;;;;1.42;0.80;;;25.00;31.60;;;;;;6152535;28;20050;-79
2022/09/20 14:08:54;;;;;;;2.30;0.93;;;24.80;32.00;;;;;;6153046;28;20058;-80
2022/09/20 14:11:57;;;;;;;9.70;1.10;;;24.70;32.30;;;;;;6149759;28;20043;-80
2022/09/20 14:15:08;;;;;;;1.50;0.68;;;24.50;32.60;;;;;;6161111;28;20127;-80
2022/09/20 14:18:17;;;;;;;6.38;1.13;;;24.40;32.90;;;;;;6162314;28;20054;-80
2022/09/20 14:21:22;;;;;;;;;;;24.30;33.20;;;;;;6150079;28;20127;-81
2022/09/20 14:24:25;;;;;;;4.65;0.75;;;24.30;33.30;;;;;;6151846;28;19914;-80
2022/09/20 14:27:29;;;;;;;4.18;0.80;;;24.30;33.30;;;;;;6149756;28;20039;-81
2022/09/20 14:30:35;;;;;;;11.68;0.90;;;24.30;33.50;;;;;;6165641;28;20035;-79
2022/09/20 14:33:41;;;;;;;4.50;0.68;;;24.20;33.50;;;;;;6151601;28;20039;-80
2022/09/20 14:36:43;;;;;;;8.25;1.25;;;24.10;33.60;;;;;;6151557;28;20049;-80
2022/09/20 14:39:52;;;;;;;4.47;1.00;;;24.10;33.60;;;;;;6150621;28;20043;-80
2022/09/20 14:42:57;;;;;;;6.63;1.02;;;24.00;33.80;;;;;;6172283;28;20134;-81
2022/09/20 14:46:03;;;;;;;2.22;0.90;;;23.90;33.80;;;;;;6174505;28;20551;-79
2022/09/20 14:49:23;;;;;;;1.90;0.80;;;23.80;33.90;;;;;;6157891;28;20055;-80
2022/09/20 14:52:27;;;;;;;3.47;0.63;;;23.80;34.00;;;;;;6172653;28;20054;-80
2022/09/20 14:55:31;;;;;;;5.57;1.20;;;23.80;34.30;;;;;;6172700;28;20031;-80
2022/09/20 14:58:53;;;;;;;1.67;0.85;;;23.90;34.20;;;;;;6141312;28;20027;-80
2022/09/20 15:02:15;;;;;;;5.85;1.10;;;23.90;34.10;;;;;;6143996;28;20047;-80
2022/09/20 15:05:24;;;;;;;2.75;1.33;;;23.90;34.10;;;;;;6150076;28;20042;-79
2022/09/20 15:08:26;;;;;;;4.00;1.20;;;23.90;34.00;;;;;;6160129;28;20039;-80
2022/09/20 15:11:28;;;;;;;7.93;1.40;;;23.80;33.90;;;;;;6148553;28;20035;-81
2022/09/20 15:14:30;;;;;;;1.63;0.98;;;23.80;33.90;;;;;;6151718;28;20047;-81
2022/09/20 15:17:31;;;;;;;3.55;1.27;;;23.80;33.80;;;;;;6149266;28;20381;-79
2022/09/20 15:20:32;;;;;;;1.55;0.88;;;23.70;33.80;;;;;;6156297;28;20109;-81
2022/09/20 15:23:34;;;;;;;3.65;1.00;;;23.60;33.70;;;;;;6183800;28;20034;-81
2022/09/20 15:26:35;;;;;;;7.68;1.05;;;23.60;33.80;;;;;;6169034;28;20390;-81
2022/09/20 15:29:36;;;;;;;2.63;1.02;;;23.60;33.90;;;;;;6158654;28;20345;-80
2022/09/20 15:32:39;;;;;;;2.22;1.08;;;23.60;33.90;;;;;;6146884;28;20465;-81
2022/09/20 15:35:41;;;;;;;3.33;0.88;;;23.60;33.80;;;;;;6148413;28;20310;-80
2022/09/20 15:38:42;;;;;;;1.48;0.80;;;23.70;33.80;;;;;;6142246;28;20039;-79
2022/09/20 15:41:45;;;;;;;5.10;1.20;;;23.60;33.80;;;;;;6148989;28;20050;-80
2022/09/20 15:44:51;;;;;;;4.97;1.52;;;23.60;33.70;;;;;;6146611;28;20484;-81
2022/09/20 15:47:57;;;;;;;1.45;1.05;;;23.60;33.70;;;;;;6147377;28;20032;-79
2022/09/20 15:51:06;;;;;;;2.78;1.02;;;23.60;33.60;;;;;;6171832;28;20477;-80
2022/09/20 15:54:12;;;;;;;1.77;1.02;;;23.60;33.60;;;;;;6171907;28;20046;-79
2022/09/20 15:57:13;;;;;;;4.57;1.23;;;23.60;33.70;;;;;;6149277;28;20097;-80
2022/09/20 16:00:18;;;;;;;5.78;1.48;;;23.60;33.70;;;;;;6127555;28;20057;-80
2022/09/20 16:03:19;;;;;;;5.45;1.08;;;23.60;33.70;;;;;;6151126;28;20058;-79
2022/09/20 16:06:22;;;;;;;9.88;2.00;;;23.70;33.70;;;;;;6154122;28;20043;-80
2022/09/20 16:09:23;;;;;;;5.13;1.48;;;23.60;33.60;;;;;;6135559;28;20054;-81
2022/09/20 16:12:24;;;;;;;2.90;1.38;;;23.70;33.70;;;;;;6169317;28;20334;-81
2022/09/20 16:15:26;;;;;;;7.60;1.20;;;23.70;33.70;;;;;;6168555;28;20161;-80
2022/09/20 16:21:54;;;;;;;1.65;1.13;;;23.70;33.80;;;;;;6144326;28;20063;-81
2022/09/20 16:24:55;;;;;;;4.60;1.00;;;23.60;34.00;;;;;;6146766;28;20105;-80
2022/09/20 16:27:57;;;;;;;1.73;1.05;;;23.50;34.00;;;;;;6140621;28;21478;-80
2022/09/20 16:30:59;;;;;;;5.50;1.85;;;23.50;34.00;;;;;;6124087;28;20474;-79
2022/09/20 16:34:04;;;;;;;4.35;1.25;;;23.40;34.30;;;;;;6143800;28;20132;-82
2022/09/20 16:37:10;;;;;;;2.22;1.02;;;23.30;34.40;;;;;;6143881;28;20123;-81
2022/09/20 16:40:13;;;;;;;3.83;1.30;;;23.30;34.70;;;;;;6147862;28;20035;-81
2022/09/20 16:43:24;;;;;;;4.53;1.00;;;23.20;34.70;;;;;;6150207;28;20131;-81
2022/09/20 16:46:26;;;;;;;3.38;0.90;;;23.10;34.90;;;;;;6145444;28;20042;-80
2022/09/20 16:49:28;;;;;;;6.25;1.30;;;23.10;35.00;;;;;;6140184;28;20371;-81
2022/09/20 16:52:29;;;;;;;11.13;1.30;;;23.10;35.20;;;;;;6170029;28;20357;-81
2022/09/20 16:55:31;;;;;;;4.15;1.05;;;23.10;35.40;;;;;;6141134;28;20130;-81
2022/09/20 16:58:32;;;;;;;3.17;0.93;;;23.00;35.60;;;;;;6170135;28;20133;-81